This is the latest recevied weather packets stored in our database for station/object KG5WBN. If no packets are shown the sender has not sent any weather packets the latest 10 day(s).
| Time | Temp. | Humidity | Pressure | Rain* | Wind** | Luminosity | Snow |
|---|---|---|---|---|---|---|---|
| 1787529911 | 30° C | 44% | 1012.5 hPa | 0 mm | - | 6 W/m² | - |
| 1787529606 | 30° C | 44% | 1012.2 hPa | 0 mm | - | 7 W/m² | - |
| 1787529301 | 30.56° C | 44% | 1012.5 hPa | 0 mm | - | 11 W/m² | - |
| 1787528995 | 30° C | 45% | 1012.9 hPa | 0 mm | - | 13 W/m² | - |
| 1787528693 | 30.56° C | 43% | 1012.5 hPa | 0 mm | - | 13 W/m² | - |
| 1787528392 | 30.56° C | 44% | 1012.9 hPa | 0 mm | - | 17 W/m² | - |
| 1787528088 | 30° C | 45% | 1012.9 hPa | 0 mm | - | 26 W/m² | - |
| 1787527784 | 30° C | 44% | 1012.9 hPa | 0 mm | - | 27 W/m² | - |
| 1787527479 | 30° C | 45% | 1013.2 hPa | 0 mm | - | 32 W/m² | - |
| 1787527174 | 30° C | 50% | 1013.2 hPa | 0 mm | - | 39 W/m² | - |
| 1787526871 | 30° C | 52% | 1013.2 hPa | 0 mm | - | 40 W/m² | - |
| 1787526566 | 30° C | 52% | 1013.5 hPa | 0 mm | - | 42 W/m² | - |
| 1787526263 | 29.44° C | 52% | 1013.5 hPa | 0 mm | - | 40 W/m² | - |
| 1787525959 | 29.44° C | 48% | 1013.5 hPa | 0 mm | - | 31 W/m² | - |
| 1787525655 | 28.89° C | 53% | 1013.5 hPa | 0 mm | - | 24 W/m² | - |
| 1787525348 | 29.44° C | 52% | 1013.9 hPa | 0 mm | - | 15 W/m² | - |
| 1787525045 | 32.78° C | 44% | 1014.2 hPa | 0 mm | - | 12 W/m² | - |
| 1787524744 | 32.78° C | 44% | 1014.2 hPa | 0 mm | - | 12 W/m² | - |
| 1787524441 | 33.33° C | 43% | 1013.2 hPa | 0 mm | - | 33 W/m² | - |
| 1787524136 | 33.89° C | 43% | 1013.2 hPa | 0 mm | - | 36 W/m² | - |
| 1787523832 | 33.89° C | 43% | 1012.9 hPa | 0 mm | - | 39 W/m² | - |
| 1787523531 | 33.89° C | 43% | 1013.2 hPa | 0 mm | - | 39 W/m² | - |
| 1787523227 | 35° C | 42% | 1013.2 hPa | 0 mm | - | 41 W/m² | - |
| 1787522923 | 35° C | 42% | 1012.9 hPa | 0 mm | - | 48 W/m² | - |
| 1787522618 | 35.56° C | 42% | 1012.5 hPa | 0 mm | - | 174 W/m² | - |
* Rain latest hour (hover to see other rain measurements)
** Current wind speed in m/s (hover to see current wind gust speed)